sensor_id;sensor_type;location;lat;lon;timestamp;temperature;humidity
18024;DHT22;9137;50.960;3.118;2023-06-10T00:02:10;21.20;78.40
18024;DHT22;9137;50.960;3.118;2023-06-10T00:04:38;21.10;78.80
18024;DHT22;9137;50.960;3.118;2023-06-10T00:07:05;21.10;79.20
18024;DHT22;9137;50.960;3.118;2023-06-10T00:09:34;21.10;79.40
18024;DHT22;9137;50.960;3.118;2023-06-10T00:12:02;21.10;79.00
18024;DHT22;9137;50.960;3.118;2023-06-10T00:14:29;21.00;79.50
18024;DHT22;9137;50.960;3.118;2023-06-10T00:16:57;21.00;80.30
18024;DHT22;9137;50.960;3.118;2023-06-10T00:19:24;21.00;80.30
18024;DHT22;9137;50.960;3.118;2023-06-10T00:21:54;21.00;80.70
18024;DHT22;9137;50.960;3.118;2023-06-10T00:24:21;20.90;80.60
18024;DHT22;9137;50.960;3.118;2023-06-10T00:26:48;20.90;81.10
18024;DHT22;9137;50.960;3.118;2023-06-10T00:29:15;20.90;81.30
18024;DHT22;9137;50.960;3.118;2023-06-10T00:31:45;20.90;81.60
18024;DHT22;9137;50.960;3.118;2023-06-10T00:34:13;20.90;81.00
18024;DHT22;9137;50.960;3.118;2023-06-10T00:36:40;20.80;81.80
18024;DHT22;9137;50.960;3.118;2023-06-10T00:39:08;20.80;82.40
18024;DHT22;9137;50.960;3.118;2023-06-10T00:41:36;20.80;82.90
18024;DHT22;9137;50.960;3.118;2023-06-10T00:44:03;20.80;83.10
18024;DHT22;9137;50.960;3.118;2023-06-10T00:46:30;20.80;83.00
18024;DHT22;9137;50.960;3.118;2023-06-10T00:48:59;20.80;83.10
18024;DHT22;9137;50.960;3.118;2023-06-10T00:51:28;20.70;83.70
18024;DHT22;9137;50.960;3.118;2023-06-10T00:53:55;20.70;84.10
18024;DHT22;9137;50.960;3.118;2023-06-10T00:56:22;20.70;84.30
18024;DHT22;9137;50.960;3.118;2023-06-10T00:58:50;20.60;84.90
18024;DHT22;9137;50.960;3.118;2023-06-10T01:01:17;20.60;85.30
18024;DHT22;9137;50.960;3.118;2023-06-10T01:03:45;20.60;85.00
18024;DHT22;9137;50.960;3.118;2023-06-10T01:06:20;20.60;85.00
18024;DHT22;9137;50.960;3.118;2023-06-10T01:08:57;20.60;85.00
18024;DHT22;9137;50.960;3.118;2023-06-10T01:11:30;20.60;85.30
18024;DHT22;9137;50.960;3.118;2023-06-10T01:14:01;20.60;85.50
18024;DHT22;9137;50.960;3.118;2023-06-10T01:16:29;20.50;86.00
18024;DHT22;9137;50.960;3.118;2023-06-10T01:18:56;20.50;87.00
18024;DHT22;9137;50.960;3.118;2023-06-10T01:21:25;20.40;87.00
18024;DHT22;9137;50.960;3.118;2023-06-10T01:23:52;20.40;87.30
18024;DHT22;9137;50.960;3.118;2023-06-10T01:26:23;20.30;87.90
18024;DHT22;9137;50.960;3.118;2023-06-10T01:28:57;20.30;88.30
18024;DHT22;9137;50.960;3.118;2023-06-10T01:31:31;20.30;88.60
18024;DHT22;9137;50.960;3.118;2023-06-10T01:34:00;20.20;89.10
18024;DHT22;9137;50.960;3.118;2023-06-10T01:36:31;20.20;88.90
18024;DHT22;9137;50.960;3.118;2023-06-10T01:39:00;20.20;89.50
18024;DHT22;9137;50.960;3.118;2023-06-10T01:41:28;20.20;89.70
18024;DHT22;9137;50.960;3.118;2023-06-10T01:43:56;20.10;89.80
18024;DHT22;9137;50.960;3.118;2023-06-10T01:46:23;20.20;89.70
18024;DHT22;9137;50.960;3.118;2023-06-10T01:48:51;20.20;89.80
18024;DHT22;9137;50.960;3.118;2023-06-10T01:51:18;20.20;89.60
18024;DHT22;9137;50.960;3.118;2023-06-10T01:53:47;20.20;89.90
18024;DHT22;9137;50.960;3.118;2023-06-10T01:56:14;20.10;89.90
18024;DHT22;9137;50.960;3.118;2023-06-10T01:58:44;20.10;90.00
18024;DHT22;9137;50.960;3.118;2023-06-10T02:01:11;20.10;90.20
18024;DHT22;9137;50.960;3.118;2023-06-10T02:03:38;20.10;90.30
18024;DHT22;9137;50.960;3.118;2023-06-10T02:06:05;20.10;90.50
18024;DHT22;9137;50.960;3.118;2023-06-10T02:08:32;20.00;90.50
18024;DHT22;9137;50.960;3.118;2023-06-10T02:11:01;20.10;90.30
18024;DHT22;9137;50.960;3.118;2023-06-10T02:13:27;20.00;90.70
18024;DHT22;9137;50.960;3.118;2023-06-10T02:15:54;20.00;90.80
18024;DHT22;9137;50.960;3.118;2023-06-10T02:18:21;20.00;91.10
18024;DHT22;9137;50.960;3.118;2023-06-10T02:20:49;20.00;91.00
18024;DHT22;9137;50.960;3.118;2023-06-10T02:23:16;19.90;91.00
18024;DHT22;9137;50.960;3.118;2023-06-10T02:25:43;19.90;90.90
18024;DHT22;9137;50.960;3.118;2023-06-10T02:28:11;19.90;91.10
18024;DHT22;9137;50.960;3.118;2023-06-10T02:30:39;19.90;91.20
18024;DHT22;9137;50.960;3.118;2023-06-10T02:33:06;19.80;91.20
18024;DHT22;9137;50.960;3.118;2023-06-10T02:35:35;19.80;91.60
18024;DHT22;9137;50.960;3.118;2023-06-10T02:38:03;19.80;91.50
18024;DHT22;9137;50.960;3.118;2023-06-10T02:40:30;19.80;91.40
18024;DHT22;9137;50.960;3.118;2023-06-10T02:42:57;19.80;91.40
18024;DHT22;9137;50.960;3.118;2023-06-10T02:45:26;19.70;91.40
18024;DHT22;9137;50.960;3.118;2023-06-10T02:47:53;19.70;91.40
18024;DHT22;9137;50.960;3.118;2023-06-10T02:50:20;19.70;91.40
18024;DHT22;9137;50.960;3.118;2023-06-10T02:52:47;19.70;91.40
18024;DHT22;9137;50.960;3.118;2023-06-10T02:55:15;19.70;91.60
18024;DHT22;9137;50.960;3.118;2023-06-10T02:57:42;19.60;91.80
18024;DHT22;9137;50.960;3.118;2023-06-10T03:00:10;19.60;91.80
18024;DHT22;9137;50.960;3.118;2023-06-10T03:02:38;19.60;91.80
18024;DHT22;9137;50.960;3.118;2023-06-10T03:05:08;19.60;91.90
18024;DHT22;9137;50.960;3.118;2023-06-10T03:07:36;19.60;91.80
18024;DHT22;9137;50.960;3.118;2023-06-10T03:10:06;19.60;91.80
18024;DHT22;9137;50.960;3.118;2023-06-10T03:12:35;19.60;91.90
18024;DHT22;9137;50.960;3.118;2023-06-10T03:15:01;19.60;91.70
18024;DHT22;9137;50.960;3.118;2023-06-10T03:17:31;19.50;91.80
18024;DHT22;9137;50.960;3.118;2023-06-10T03:19:59;19.50;91.90
18024;DHT22;9137;50.960;3.118;2023-06-10T03:22:26;19.50;92.10
18024;DHT22;9137;50.960;3.118;2023-06-10T03:24:53;19.40;92.20
18024;DHT22;9137;50.960;3.118;2023-06-10T03:27:22;19.40;92.20
18024;DHT22;9137;50.960;3.118;2023-06-10T03:29:52;19.40;92.20
18024;DHT22;9137;50.960;3.118;2023-06-10T03:32:21;19.40;92.30
18024;DHT22;9137;50.960;3.118;2023-06-10T03:34:48;19.40;92.40
18024;DHT22;9137;50.960;3.118;2023-06-10T03:37:16;19.30;92.30
18024;DHT22;9137;50.960;3.118;2023-06-10T03:39:43;19.30;92.60
18024;DHT22;9137;50.960;3.118;2023-06-10T03:42:10;19.30;92.50
18024;DHT22;9137;50.960;3.118;2023-06-10T03:44:36;19.30;92.70
18024;DHT22;9137;50.960;3.118;2023-06-10T03:47:07;19.30;92.90
18024;DHT22;9137;50.960;3.118;2023-06-10T03:49:35;19.30;93.00
18024;DHT22;9137;50.960;3.118;2023-06-10T03:52:04;19.30;92.80
18024;DHT22;9137;50.960;3.118;2023-06-10T03:54:36;19.20;93.20
18024;DHT22;9137;50.960;3.118;2023-06-10T03:57:05;19.20;93.40
18024;DHT22;9137;50.960;3.118;2023-06-10T03:59:32;19.10;93.30
18024;DHT22;9137;50.960;3.118;2023-06-10T04:01:59;19.20;93.50
18024;DHT22;9137;50.960;3.118;2023-06-10T04:04:27;19.20;93.50
18024;DHT22;9137;50.960;3.118;2023-06-10T04:06:54;19.20;93.90
18024;DHT22;9137;50.960;3.118;2023-06-10T04:09:21;19.20;94.30
18024;DHT22;9137;50.960;3.118;2023-06-10T04:11:49;19.10;94.30
18024;DHT22;9137;50.960;3.118;2023-06-10T04:14:16;19.00;94.30
18024;DHT22;9137;50.960;3.118;2023-06-10T04:16:43;19.00;94.40
18024;DHT22;9137;50.960;3.118;2023-06-10T04:19:10;19.00;94.40
18024;DHT22;9137;50.960;3.118;2023-06-10T04:21:37;19.00;94.20
18024;DHT22;9137;50.960;3.118;2023-06-10T04:24:04;19.00;94.30
18024;DHT22;9137;50.960;3.118;2023-06-10T04:26:31;19.00;94.30
18024;DHT22;9137;50.960;3.118;2023-06-10T04:29:00;19.10;94.30
18024;DHT22;9137;50.960;3.118;2023-06-10T04:31:27;19.10;94.10
18024;DHT22;9137;50.960;3.118;2023-06-10T04:33:54;19.20;94.00
18024;DHT22;9137;50.960;3.118;2023-06-10T04:36:21;19.20;93.90
18024;DHT22;9137;50.960;3.118;2023-06-10T04:38:49;19.30;93.90
18024;DHT22;9137;50.960;3.118;2023-06-10T04:41:17;19.30;93.80
18024;DHT22;9137;50.960;3.118;2023-06-10T04:43:45;19.30;93.70
18024;DHT22;9137;50.960;3.118;2023-06-10T04:46:13;19.30;93.80
18024;DHT22;9137;50.960;3.118;2023-06-10T04:48:40;19.30;94.00
18024;DHT22;9137;50.960;3.118;2023-06-10T04:51:07;19.40;93.90
18024;DHT22;9137;50.960;3.118;2023-06-10T04:53:35;19.40;93.80
18024;DHT22;9137;50.960;3.118;2023-06-10T04:56:02;19.40;93.90
18024;DHT22;9137;50.960;3.118;2023-06-10T04:58:29;19.40;94.20
18024;DHT22;9137;50.960;3.118;2023-06-10T05:00:56;19.40;94.10
18024;DHT22;9137;50.960;3.118;2023-06-10T05:03:24;19.50;94.10
18024;DHT22;9137;50.960;3.118;2023-06-10T05:05:51;19.50;94.00
18024;DHT22;9137;50.960;3.118;2023-06-10T05:08:18;19.60;93.90
18024;DHT22;9137;50.960;3.118;2023-06-10T05:10:45;19.70;93.90
18024;DHT22;9137;50.960;3.118;2023-06-10T05:13:12;19.70;93.60
18024;DHT22;9137;50.960;3.118;2023-06-10T05:15:39;19.80;93.70
18024;DHT22;9137;50.960;3.118;2023-06-10T05:18:10;19.80;93.80
18024;DHT22;9137;50.960;3.118;2023-06-10T05:20:38;19.90;93.50
18024;DHT22;9137;50.960;3.118;2023-06-10T05:23:05;20.00;93.40
18024;DHT22;9137;50.960;3.118;2023-06-10T05:25:33;20.00;93.10
18024;DHT22;9137;50.960;3.118;2023-06-10T05:28:00;20.10;93.00
18024;DHT22;9137;50.960;3.118;2023-06-10T05:30:27;20.20;93.00
18024;DHT22;9137;50.960;3.118;2023-06-10T05:32:54;20.20;92.90
18024;DHT22;9137;50.960;3.118;2023-06-10T05:35:21;20.30;92.60
18024;DHT22;9137;50.960;3.118;2023-06-10T05:37:50;20.40;92.60
18024;DHT22;9137;50.960;3.118;2023-06-10T05:40:17;20.40;92.90
18024;DHT22;9137;50.960;3.118;2023-06-10T05:42:44;20.40;92.90
18024;DHT22;9137;50.960;3.118;2023-06-10T05:45:11;20.50;92.60
18024;DHT22;9137;50.960;3.118;2023-06-10T05:47:38;20.50;92.50
18024;DHT22;9137;50.960;3.118;2023-06-10T05:50:06;20.60;92.30
18024;DHT22;9137;50.960;3.118;2023-06-10T05:52:34;20.60;92.20
18024;DHT22;9137;50.960;3.118;2023-06-10T05:55:02;20.70;92.40
18024;DHT22;9137;50.960;3.118;2023-06-10T05:57:29;20.80;92.20
18024;DHT22;9137;50.960;3.118;2023-06-10T05:59:56;20.90;92.20
18024;DHT22;9137;50.960;3.118;2023-06-10T06:02:23;21.00;91.70
18024;DHT22;9137;50.960;3.118;2023-06-10T06:04:50;21.00;91.30
18024;DHT22;9137;50.960;3.118;2023-06-10T06:07:17;21.10;91.20
18024;DHT22;9137;50.960;3.118;2023-06-10T06:09:46;21.20;91.10
18024;DHT22;9137;50.960;3.118;2023-06-10T06:12:14;21.30;90.80
18024;DHT22;9137;50.960;3.118;2023-06-10T06:14:41;21.40;90.60
18024;DHT22;9137;50.960;3.118;2023-06-10T06:17:08;21.40;90.70
18024;DHT22;9137;50.960;3.118;2023-06-10T06:19:35;21.40;90.30
18024;DHT22;9137;50.960;3.118;2023-06-10T06:22:02;21.50;90.00
18024;DHT22;9137;50.960;3.118;2023-06-10T06:24:29;21.60;90.10
18024;DHT22;9137;50.960;3.118;2023-06-10T06:26:56;21.60;90.20
18024;DHT22;9137;50.960;3.118;2023-06-10T06:29:24;21.70;90.00
18024;DHT22;9137;50.960;3.118;2023-06-10T06:31:51;21.80;90.20
18024;DHT22;9137;50.960;3.118;2023-06-10T06:34:18;21.90;89.40
18024;DHT22;9137;50.960;3.118;2023-06-10T06:36:45;21.90;87.80
18024;DHT22;9137;50.960;3.118;2023-06-10T06:39:12;22.00;87.20
18024;DHT22;9137;50.960;3.118;2023-06-10T06:41:39;22.10;87.00
18024;DHT22;9137;50.960;3.118;2023-06-10T06:44:06;22.10;86.50
18024;DHT22;9137;50.960;3.118;2023-06-10T06:46:34;22.20;86.10
18024;DHT22;9137;50.960;3.118;2023-06-10T06:49:01;22.30;87.20
18024;DHT22;9137;50.960;3.118;2023-06-10T06:51:28;22.30;87.80
18024;DHT22;9137;50.960;3.118;2023-06-10T06:53:55;22.40;83.80
18024;DHT22;9137;50.960;3.118;2023-06-10T06:56:24;22.50;84.80
18024;DHT22;9137;50.960;3.118;2023-06-10T06:58:52;22.60;81.70
18024;DHT22;9137;50.960;3.118;2023-06-10T07:01:19;22.60;82.10
18024;DHT22;9137;50.960;3.118;2023-06-10T07:03:47;22.70;82.40
18024;DHT22;9137;50.960;3.118;2023-06-10T07:06:14;22.80;81.30
18024;DHT22;9137;50.960;3.118;2023-06-10T07:08:41;22.90;78.10
18024;DHT22;9137;50.960;3.118;2023-06-10T07:11:08;23.00;79.50
18024;DHT22;9137;50.960;3.118;2023-06-10T07:13:35;23.00;79.20
18024;DHT22;9137;50.960;3.118;2023-06-10T07:16:02;23.10;81.30
18024;DHT22;9137;50.960;3.118;2023-06-10T07:18:29;23.20;79.40
18024;DHT22;9137;50.960;3.118;2023-06-10T07:20:58;23.30;77.70
18024;DHT22;9137;50.960;3.118;2023-06-10T07:23:25;23.30;78.10
18024;DHT22;9137;50.960;3.118;2023-06-10T07:25:52;23.40;78.00
18024;DHT22;9137;50.960;3.118;2023-06-10T07:28:19;23.50;79.40
18024;DHT22;9137;50.960;3.118;2023-06-10T07:30:46;23.50;79.10
18024;DHT22;9137;50.960;3.118;2023-06-10T07:33:13;23.60;77.30
18024;DHT22;9137;50.960;3.118;2023-06-10T07:35:39;23.80;76.50
18024;DHT22;9137;50.960;3.118;2023-06-10T07:38:10;23.80;74.20
18024;DHT22;9137;50.960;3.118;2023-06-10T07:40:36;24.00;75.30
18024;DHT22;9137;50.960;3.118;2023-06-10T07:43:03;24.00;73.60
18024;DHT22;9137;50.960;3.118;2023-06-10T07:45:30;24.10;73.60
18024;DHT22;9137;50.960;3.118;2023-06-10T07:47:57;24.20;74.40
18024;DHT22;9137;50.960;3.118;2023-06-10T07:50:24;24.30;74.00
18024;DHT22;9137;50.960;3.118;2023-06-10T07:52:51;24.40;72.60
18024;DHT22;9137;50.960;3.118;2023-06-10T07:55:19;24.40;76.00
18024;DHT22;9137;50.960;3.118;2023-06-10T07:57:46;24.50;73.10
18024;DHT22;9137;50.960;3.118;2023-06-10T08:00:14;24.60;72.10
18024;DHT22;9137;50.960;3.118;2023-06-10T08:02:41;24.70;72.40
18024;DHT22;9137;50.960;3.118;2023-06-10T08:05:08;24.80;71.30
18024;DHT22;9137;50.960;3.118;2023-06-10T08:07:35;24.90;69.70
18024;DHT22;9137;50.960;3.118;2023-06-10T08:10:02;25.10;70.10
18024;DHT22;9137;50.960;3.118;2023-06-10T08:12:32;25.30;69.20
18024;DHT22;9137;50.960;3.118;2023-06-10T08:14:59;25.50;65.80
18024;DHT22;9137;50.960;3.118;2023-06-10T08:17:26;25.70;68.20
18024;DHT22;9137;50.960;3.118;2023-06-10T08:19:53;25.90;66.60
18024;DHT22;9137;50.960;3.118;2023-06-10T08:22:20;26.10;66.20
18024;DHT22;9137;50.960;3.118;2023-06-10T08:24:47;26.40;65.40
18024;DHT22;9137;50.960;3.118;2023-06-10T08:27:14;26.60;64.20
18024;DHT22;9137;50.960;3.118;2023-06-10T08:29:42;27.00;62.20
18024;DHT22;9137;50.960;3.118;2023-06-10T08:32:09;27.30;61.80
18024;DHT22;9137;50.960;3.118;2023-06-10T08:34:36;27.50;59.90
18024;DHT22;9137;50.960;3.118;2023-06-10T08:37:03;27.90;60.10
18024;DHT22;9137;50.960;3.118;2023-06-10T08:39:31;28.30;56.90
18024;DHT22;9137;50.960;3.118;2023-06-10T08:42:05;28.40;54.20
18024;DHT22;9137;50.960;3.118;2023-06-10T08:44:35;28.60;56.50
18024;DHT22;9137;50.960;3.118;2023-06-10T08:47:08;29.00;55.20
18024;DHT22;9137;50.960;3.118;2023-06-10T08:49:40;29.40;54.60
18024;DHT22;9137;50.960;3.118;2023-06-10T08:52:14;29.80;54.40
18024;DHT22;9137;50.960;3.118;2023-06-10T08:54:43;29.90;49.90
18024;DHT22;9137;50.960;3.118;2023-06-10T08:57:13;30.00;51.60
18024;DHT22;9137;50.960;3.118;2023-06-10T08:59:41;30.20;52.50
18024;DHT22;9137;50.960;3.118;2023-06-10T09:02:10;30.50;51.20
18024;DHT22;9137;50.960;3.118;2023-06-10T09:04:37;30.70;51.70
18024;DHT22;9137;50.960;3.118;2023-06-10T09:07:05;31.00;49.60
18024;DHT22;9137;50.960;3.118;2023-06-10T09:09:34;31.00;46.10
18024;DHT22;9137;50.960;3.118;2023-06-10T09:12:02;31.20;49.80
18024;DHT22;9137;50.960;3.118;2023-06-10T09:14:29;31.40;48.30
18024;DHT22;9137;50.960;3.118;2023-06-10T09:16:56;31.70;45.30
18024;DHT22;9137;50.960;3.118;2023-06-10T09:19:25;31.90;47.00
18024;DHT22;9137;50.960;3.118;2023-06-10T09:21:53;32.10;45.50
18024;DHT22;9137;50.960;3.118;2023-06-10T09:24:22;32.20;43.90
18024;DHT22;9137;50.960;3.118;2023-06-10T09:26:51;32.20;46.80
18024;DHT22;9137;50.960;3.118;2023-06-10T09:29:28;32.40;45.70
18024;DHT22;9137;50.960;3.118;2023-06-10T09:31:55;32.40;43.70
18024;DHT22;9137;50.960;3.118;2023-06-10T09:34:26;32.30;42.60
18024;DHT22;9137;50.960;3.118;2023-06-10T09:36:53;32.50;42.90
18024;DHT22;9137;50.960;3.118;2023-06-10T09:39:21;32.70;44.60
18024;DHT22;9137;50.960;3.118;2023-06-10T09:41:48;32.90;42.00
18024;DHT22;9137;50.960;3.118;2023-06-10T09:44:16;32.70;44.30
18024;DHT22;9137;50.960;3.118;2023-06-10T09:46:45;32.90;44.40
18024;DHT22;9137;50.960;3.118;2023-06-10T09:49:13;32.90;45.20
18024;DHT22;9137;50.960;3.118;2023-06-10T09:51:50;33.00;44.40
18024;DHT22;9137;50.960;3.118;2023-06-10T09:54:18;33.10;43.70
18024;DHT22;9137;50.960;3.118;2023-06-10T09:56:47;33.30;43.20
18024;DHT22;9137;50.960;3.118;2023-06-10T09:59:14;33.40;42.40
18024;DHT22;9137;50.960;3.118;2023-06-10T10:01:41;33.30;40.90
18024;DHT22;9137;50.960;3.118;2023-06-10T10:04:08;33.40;43.10
18024;DHT22;9137;50.960;3.118;2023-06-10T10:06:36;33.50;42.80
18024;DHT22;9137;50.960;3.118;2023-06-10T10:09:04;33.50;41.20
18024;DHT22;9137;50.960;3.118;2023-06-10T10:11:33;33.50;39.60
18024;DHT22;9137;50.960;3.118;2023-06-10T10:14:04;33.50;39.90
18024;DHT22;9137;50.960;3.118;2023-06-10T10:16:36;33.50;41.30
18024;DHT22;9137;50.960;3.118;2023-06-10T10:19:11;33.60;41.00
18024;DHT22;9137;50.960;3.118;2023-06-10T10:21:43;33.70;38.70
18024;DHT22;9137;50.960;3.118;2023-06-10T10:24:17;33.60;39.60
18024;DHT22;9137;50.960;3.118;2023-06-10T10:26:47;33.50;38.40
18024;DHT22;9137;50.960;3.118;2023-06-10T10:29:19;33.70;41.00
18024;DHT22;9137;50.960;3.118;2023-06-10T10:31:50;33.80;38.00
18024;DHT22;9137;50.960;3.118;2023-06-10T10:34:29;33.90;37.80
18024;DHT22;9137;50.960;3.118;2023-06-10T10:36:57;33.90;39.60
18024;DHT22;9137;50.960;3.118;2023-06-10T10:39:26;33.90;37.40
18024;DHT22;9137;50.960;3.118;2023-06-10T10:41:55;33.80;37.70
18024;DHT22;9137;50.960;3.118;2023-06-10T10:44:22;33.80;39.00
18024;DHT22;9137;50.960;3.118;2023-06-10T10:46:50;33.90;38.70
18024;DHT22;9137;50.960;3.118;2023-06-10T10:49:20;33.80;36.10
18024;DHT22;9137;50.960;3.118;2023-06-10T10:51:55;33.70;36.50
18024;DHT22;9137;50.960;3.118;2023-06-10T10:54:30;33.90;37.50
18024;DHT22;9137;50.960;3.118;2023-06-10T10:57:10;34.10;35.00
18024;DHT22;9137;50.960;3.118;2023-06-10T10:59:52;34.00;34.40
18024;DHT22;9137;50.960;3.118;2023-06-10T11:02:36;34.00;34.40
18024;DHT22;9137;50.960;3.118;2023-06-10T11:05:05;34.20;33.80
18024;DHT22;9137;50.960;3.118;2023-06-10T11:07:34;34.30;34.30
18024;DHT22;9137;50.960;3.118;2023-06-10T11:10:06;34.40;34.00
18024;DHT22;9137;50.960;3.118;2023-06-10T11:12:51;34.60;33.90
18024;DHT22;9137;50.960;3.118;2023-06-10T11:15:19;34.60;31.80
18024;DHT22;9137;50.960;3.118;2023-06-10T11:18:09;34.70;32.90
18024;DHT22;9137;50.960;3.118;2023-06-10T11:20:45;34.70;33.90
18024;DHT22;9137;50.960;3.118;2023-06-10T11:23:25;34.80;32.40
18024;DHT22;9137;50.960;3.118;2023-06-10T11:26:19;34.90;32.80
18024;DHT22;9137;50.960;3.118;2023-06-10T11:29:07;35.10;33.10
18024;DHT22;9137;50.960;3.118;2023-06-10T11:31:49;35.30;30.80
18024;DHT22;9137;50.960;3.118;2023-06-10T11:34:22;35.10;28.90
18024;DHT22;9137;50.960;3.118;2023-06-10T11:36:51;34.50;30.00
18024;DHT22;9137;50.960;3.118;2023-06-10T11:39:21;34.50;30.60
18024;DHT22;9137;50.960;3.118;2023-06-10T11:41:51;34.40;30.60
18024;DHT22;9137;50.960;3.118;2023-06-10T11:44:18;34.50;31.90
18024;DHT22;9137;50.960;3.118;2023-06-10T11:46:47;34.60;31.50
18024;DHT22;9137;50.960;3.118;2023-06-10T11:49:15;34.80;33.10
18024;DHT22;9137;50.960;3.118;2023-06-10T11:51:42;35.20;30.80
18024;DHT22;9137;50.960;3.118;2023-06-10T11:54:15;35.30;29.80
18024;DHT22;9137;50.960;3.118;2023-06-10T11:56:43;35.30;30.50
18024;DHT22;9137;50.960;3.118;2023-06-10T11:59:11;35.40;29.80
18024;DHT22;9137;50.960;3.118;2023-06-10T12:01:42;35.20;28.40
18024;DHT22;9137;50.960;3.118;2023-06-10T12:04:11;34.80;28.90
18024;DHT22;9137;50.960;3.118;2023-06-10T12:06:39;34.30;28.90
18024;DHT22;9137;50.960;3.118;2023-06-10T12:09:06;34.30;30.50
18024;DHT22;9137;50.960;3.118;2023-06-10T12:11:34;34.60;28.30
18024;DHT22;9137;50.960;3.118;2023-06-10T12:14:01;34.70;27.80
18024;DHT22;9137;50.960;3.118;2023-06-10T12:16:31;34.70;28.40
18024;DHT22;9137;50.960;3.118;2023-06-10T12:19:02;34.70;28.40
18024;DHT22;9137;50.960;3.118;2023-06-10T12:21:29;34.70;28.70
18024;DHT22;9137;50.960;3.118;2023-06-10T12:24:04;34.80;29.60
18024;DHT22;9137;50.960;3.118;2023-06-10T12:26:42;35.00;28.40
18024;DHT22;9137;50.960;3.118;2023-06-10T12:29:21;35.00;28.20
18024;DHT22;9137;50.960;3.118;2023-06-10T12:32:00;35.00;30.50
18024;DHT22;9137;50.960;3.118;2023-06-10T12:34:33;35.20;27.80
18024;DHT22;9137;50.960;3.118;2023-06-10T12:37:00;35.20;28.40
18024;DHT22;9137;50.960;3.118;2023-06-10T12:39:30;35.30;28.60
18024;DHT22;9137;50.960;3.118;2023-06-10T12:41:57;35.10;27.70
18024;DHT22;9137;50.960;3.118;2023-06-10T12:44:31;34.90;28.70
18024;DHT22;9137;50.960;3.118;2023-06-10T12:47:00;35.10;28.40
18024;DHT22;9137;50.960;3.118;2023-06-10T12:49:27;35.20;28.20
18024;DHT22;9137;50.960;3.118;2023-06-10T12:51:54;35.20;28.30
18024;DHT22;9137;50.960;3.118;2023-06-10T12:54:21;35.30;28.70
18024;DHT22;9137;50.960;3.118;2023-06-10T12:56:48;35.40;28.40
18024;DHT22;9137;50.960;3.118;2023-06-10T12:59:15;35.30;27.10
18024;DHT22;9137;50.960;3.118;2023-06-10T13:01:43;35.30;27.80
18024;DHT22;9137;50.960;3.118;2023-06-10T13:04:11;35.50;28.30
18024;DHT22;9137;50.960;3.118;2023-06-10T13:06:38;35.70;27.90
18024;DHT22;9137;50.960;3.118;2023-06-10T13:09:06;35.90;27.50
18024;DHT22;9137;50.960;3.118;2023-06-10T13:11:33;36.10;27.90
18024;DHT22;9137;50.960;3.118;2023-06-10T13:14:01;36.20;27.50
18024;DHT22;9137;50.960;3.118;2023-06-10T13:16:30;36.00;26.40
18024;DHT22;9137;50.960;3.118;2023-06-10T13:18:58;36.00;27.50
18024;DHT22;9137;50.960;3.118;2023-06-10T13:21:27;36.20;26.90
18024;DHT22;9137;50.960;3.118;2023-06-10T13:23:54;36.10;27.50
18024;DHT22;9137;50.960;3.118;2023-06-10T13:26:21;35.40;27.10
18024;DHT22;9137;50.960;3.118;2023-06-10T13:28:48;35.10;28.30
18024;DHT22;9137;50.960;3.118;2023-06-10T13:31:16;35.10;28.30
18024;DHT22;9137;50.960;3.118;2023-06-10T13:33:44;35.40;27.80
18024;DHT22;9137;50.960;3.118;2023-06-10T13:36:12;35.70;28.50
18024;DHT22;9137;50.960;3.118;2023-06-10T13:38:41;36.10;27.30
18024;DHT22;9137;50.960;3.118;2023-06-10T13:41:07;36.20;26.80
18024;DHT22;9137;50.960;3.118;2023-06-10T13:43:35;36.30;28.00
18024;DHT22;9137;50.960;3.118;2023-06-10T13:46:03;36.20;27.30
18024;DHT22;9137;50.960;3.118;2023-06-10T13:48:30;35.80;26.40
18024;DHT22;9137;50.960;3.118;2023-06-10T13:50:57;35.20;27.70
18024;DHT22;9137;50.960;3.118;2023-06-10T13:53:25;34.60;28.60
18024;DHT22;9137;50.960;3.118;2023-06-10T13:55:54;34.00;28.40
18024;DHT22;9137;50.960;3.118;2023-06-10T13:58:20;33.40;28.50
18024;DHT22;9137;50.960;3.118;2023-06-10T14:00:47;32.80;29.30
18024;DHT22;9137;50.960;3.118;2023-06-10T14:03:14;32.50;30.50
18024;DHT22;9137;50.960;3.118;2023-06-10T14:05:41;32.40;32.30
18024;DHT22;9137;50.960;3.118;2023-06-10T14:08:08;32.20;30.90
18024;DHT22;9137;50.960;3.118;2023-06-10T14:10:35;32.00;31.50
18024;DHT22;9137;50.960;3.118;2023-06-10T14:13:03;32.00;32.00
18024;DHT22;9137;50.960;3.118;2023-06-10T14:15:31;32.00;32.40
18024;DHT22;9137;50.960;3.118;2023-06-10T14:17:58;32.40;32.40
18024;DHT22;9137;50.960;3.118;2023-06-10T14:20:25;33.10;31.90
18024;DHT22;9137;50.960;3.118;2023-06-10T14:22:52;33.70;30.30
18024;DHT22;9137;50.960;3.118;2023-06-10T14:25:19;33.70;29.90
18024;DHT22;9137;50.960;3.118;2023-06-10T14:27:46;33.50;29.80
18024;DHT22;9137;50.960;3.118;2023-06-10T14:30:16;33.70;30.60
18024;DHT22;9137;50.960;3.118;2023-06-10T14:32:43;33.70;29.20
18024;DHT22;9137;50.960;3.118;2023-06-10T14:35:11;33.30;29.60
18024;DHT22;9137;50.960;3.118;2023-06-10T14:37:38;33.00;29.20
18024;DHT22;9137;50.960;3.118;2023-06-10T14:40:06;33.20;30.60
18024;DHT22;9137;50.960;3.118;2023-06-10T14:42:33;33.70;30.40
18024;DHT22;9137;50.960;3.118;2023-06-10T14:45:01;34.40;29.80
18024;DHT22;9137;50.960;3.118;2023-06-10T14:47:30;34.90;28.50
18024;DHT22;9137;50.960;3.118;2023-06-10T14:49:57;35.20;29.10
18024;DHT22;9137;50.960;3.118;2023-06-10T14:52:24;35.50;28.00
18024;DHT22;9137;50.960;3.118;2023-06-10T14:54:50;35.90;27.50
18024;DHT22;9137;50.960;3.118;2023-06-10T14:57:17;36.20;27.80
18024;DHT22;9137;50.960;3.118;2023-06-10T14:59:45;36.30;27.00
18024;DHT22;9137;50.960;3.118;2023-06-10T15:02:11;36.40;25.90
18024;DHT22;9137;50.960;3.118;2023-06-10T15:04:40;36.40;26.70
18024;DHT22;9137;50.960;3.118;2023-06-10T15:07:07;36.60;26.80
18024;DHT22;9137;50.960;3.118;2023-06-10T15:09:33;36.50;27.20
18024;DHT22;9137;50.960;3.118;2023-06-10T15:12:00;36.10;26.70
18024;DHT22;9137;50.960;3.118;2023-06-10T15:14:29;35.20;27.00
18024;DHT22;9137;50.960;3.118;2023-06-10T15:16:55;34.40;27.90
18024;DHT22;9137;50.960;3.118;2023-06-10T15:19:24;33.90;28.70
18024;DHT22;9137;50.960;3.118;2023-06-10T15:21:53;33.40;30.00
18024;DHT22;9137;50.960;3.118;2023-06-10T15:24:20;33.10;29.70
18024;DHT22;9137;50.960;3.118;2023-06-10T15:26:47;32.90;29.90
18024;DHT22;9137;50.960;3.118;2023-06-10T15:29:14;32.80;29.70
18024;DHT22;9137;50.960;3.118;2023-06-10T15:31:41;32.70;31.10
18024;DHT22;9137;50.960;3.118;2023-06-10T15:34:10;33.00;30.20
18024;DHT22;9137;50.960;3.118;2023-06-10T15:36:37;33.40;31.30
18024;DHT22;9137;50.960;3.118;2023-06-10T15:39:05;33.90;29.60
18024;DHT22;9137;50.960;3.118;2023-06-10T15:41:35;34.50;30.00
18024;DHT22;9137;50.960;3.118;2023-06-10T15:44:02;34.60;27.60
18024;DHT22;9137;50.960;3.118;2023-06-10T15:46:29;34.70;28.60
18024;DHT22;9137;50.960;3.118;2023-06-10T15:48:56;34.70;29.00
18024;DHT22;9137;50.960;3.118;2023-06-10T15:51:23;34.60;28.20
18024;DHT22;9137;50.960;3.118;2023-06-10T15:53:50;34.50;29.00